sensor_id;sensor_type;location;lat;lon;timestamp;pressure;altitude;pressure_sealevel;temperature;humidity
62418;BME280;48456;54.242;10.280;2022-07-29T00:02:12;101940.44;;;9.41;100.00
62418;BME280;48456;54.242;10.280;2022-07-29T00:04:38;101946.53;;;9.39;100.00
62418;BME280;48456;54.242;10.280;2022-07-29T00:07:05;101945.69;;;9.38;100.00
62418;BME280;48456;54.242;10.280;2022-07-29T00:09:31;101938.59;;;9.35;100.00
62418;BME280;48456;54.242;10.280;2022-07-29T00:12:07;101940.25;;;9.32;100.00
62418;BME280;48456;54.242;10.280;2022-07-29T00:14:35;101946.34;;;9.28;100.00
62418;BME280;48456;54.242;10.280;2022-07-29T00:17:01;101939.19;;;9.22;100.00
62418;BME280;48456;54.242;10.280;2022-07-29T00:19:27;101938.19;;;9.15;100.00
62418;BME280;48456;54.242;10.280;2022-07-29T00:21:53;101931.13;;;9.14;100.00
62418;BME280;48456;54.242;10.280;2022-07-29T00:24:20;101938.13;;;9.12;100.00
62418;BME280;48456;54.242;10.280;2022-07-29T00:26:46;101935.50;;;9.12;100.00
62418;BME280;48456;54.242;10.280;2022-07-29T00:29:13;101935.47;;;9.10;100.00
62418;BME280;48456;54.242;10.280;2022-07-29T00:31:59;101938.88;;;9.05;100.00
62418;BME280;48456;54.242;10.280;2022-07-29T00:34:26;101938.78;;;9.02;100.00
62418;BME280;48456;54.242;10.280;2022-07-29T00:37:11;101942.34;;;9.02;100.00
62418;BME280;48456;54.242;10.280;2022-07-29T00:39:38;101932.66;;;9.01;100.00
62418;BME280;48456;54.242;10.280;2022-07-29T00:42:04;101937.88;;;9.00;100.00
62418;BME280;48456;54.242;10.280;2022-07-29T00:44:30;101940.41;;;8.95;100.00
62418;BME280;48456;54.242;10.280;2022-07-29T00:47:01;101935.91;;;8.89;100.00
62418;BME280;48456;54.242;10.280;2022-07-29T00:49:28;101935.84;;;8.86;100.00
62418;BME280;48456;54.242;10.280;2022-07-29T00:51:54;101941.97;;;8.85;100.00
62418;BME280;48456;54.242;10.280;2022-07-29T00:54:21;101947.28;;;8.87;100.00
62418;BME280;48456;54.242;10.280;2022-07-29T00:56:47;101948.16;;;8.86;100.00
62418;BME280;48456;54.242;10.280;2022-07-29T00:59:13;101954.25;;;8.83;100.00
62418;BME280;48456;54.242;10.280;2022-07-29T01:01:40;101955.94;;;8.81;100.00
62418;BME280;48456;54.242;10.280;2022-07-29T01:04:06;101960.31;;;8.79;100.00
62418;BME280;48456;54.242;10.280;2022-07-29T01:06:33;101952.38;;;8.77;100.00
62418;BME280;48456;54.242;10.280;2022-07-29T01:09:00;101962.00;;;8.77;100.00
62418;BME280;48456;54.242;10.280;2022-07-29T01:11:27;101957.56;;;8.74;100.00
62418;BME280;48456;54.242;10.280;2022-07-29T01:13:53;101950.34;;;8.65;100.00
62418;BME280;48456;54.242;10.280;2022-07-29T01:16:25;101944.09;;;8.62;100.00
62418;BME280;48456;54.242;10.280;2022-07-29T01:18:56;101938.78;;;8.60;100.00
62418;BME280;48456;54.242;10.280;2022-07-29T01:24:09;101940.41;;;8.53;100.00
62418;BME280;48456;54.242;10.280;2022-07-29T01:34:31;101941.03;;;8.43;100.00
62418;BME280;48456;54.242;10.280;2022-07-29T01:37:06;101942.81;;;8.44;100.00
62418;BME280;48456;54.242;10.280;2022-07-29T01:39:35;101934.84;;;8.42;100.00
62418;BME280;48456;54.242;10.280;2022-07-29T01:42:11;101931.22;;;8.37;100.00
62418;BME280;48456;54.242;10.280;2022-07-29T01:47:42;101941.66;;;8.31;100.00
62418;BME280;48456;54.242;10.280;2022-07-29T01:50:10;101933.75;;;8.31;100.00
62418;BME280;48456;54.242;10.280;2022-07-29T01:52:39;101931.03;;;8.28;100.00
62418;BME280;48456;54.242;10.280;2022-07-29T01:55:12;101927.47;;;8.27;100.00
62418;BME280;48456;54.242;10.280;2022-07-29T01:57:40;101933.69;;;8.29;100.00
62418;BME280;48456;54.242;10.280;2022-07-29T02:00:08;101931.03;;;8.28;100.00
62418;BME280;48456;54.242;10.280;2022-07-29T02:02:35;101931.88;;;8.28;100.00
62418;BME280;48456;54.242;10.280;2022-07-29T02:05:03;101925.81;;;8.31;100.00
62418;BME280;48456;54.242;10.280;2022-07-29T02:07:32;101927.47;;;8.27;100.00
62418;BME280;48456;54.242;10.280;2022-07-29T02:09:59;101922.16;;;8.26;100.00
62418;BME280;48456;54.242;10.280;2022-07-29T02:12:26;101923.91;;;8.24;100.00
62418;BME280;48456;54.242;10.280;2022-07-29T02:14:54;101920.31;;;8.22;100.00
62418;BME280;48456;54.242;10.280;2022-07-29T02:17:25;101920.22;;;8.17;100.00
62418;BME280;48456;54.242;10.280;2022-07-29T02:19:52;101919.25;;;8.13;100.00
62418;BME280;48456;54.242;10.280;2022-07-29T02:22:21;101912.09;;;8.08;100.00
62418;BME280;48456;54.242;10.280;2022-07-29T02:24:50;101909.38;;;8.04;100.00
62418;BME280;48456;54.242;10.280;2022-07-29T02:27:17;101909.31;;;8.01;100.00
62418;BME280;48456;54.242;10.280;2022-07-29T02:29:45;101904.91;;;8.00;100.00
62418;BME280;48456;54.242;10.280;2022-07-29T02:32:13;101905.72;;;7.98;100.00
62418;BME280;48456;54.242;10.280;2022-07-29T02:34:40;101903.94;;;7.97;100.00
62418;BME280;48456;54.242;10.280;2022-07-29T02:37:08;101905.63;;;7.95;100.00
62418;BME280;48456;54.242;10.280;2022-07-29T02:39:35;101899.47;;;7.94;100.00
62418;BME280;48456;54.242;10.280;2022-07-29T02:42:03;101901.13;;;7.90;100.00
62418;BME280;48456;54.242;10.280;2022-07-29T02:44:31;101907.28;;;7.89;100.00
62418;BME280;48456;54.242;10.280;2022-07-29T02:47:20;101908.91;;;7.86;100.00
62418;BME280;48456;54.242;10.280;2022-07-29T02:50:02;101904.56;;;7.86;100.00
62418;BME280;48456;54.242;10.280;2022-07-29T02:52:35;101902.78;;;7.85;100.00
62418;BME280;48456;54.242;10.280;2022-07-29T02:55:07;101907.19;;;7.86;100.00
62418;BME280;48456;54.242;10.280;2022-07-29T02:57:38;101907.19;;;7.86;100.00
62418;BME280;48456;54.242;10.280;2022-07-29T03:00:21;101902.81;;;7.87;100.00
62418;BME280;48456;54.242;10.280;2022-07-29T03:02:50;101900.22;;;7.88;100.00
62418;BME280;48456;54.242;10.280;2022-07-29T03:05:19;101900.22;;;7.88;100.00
62418;BME280;48456;54.242;10.280;2022-07-29T03:07:47;101898.50;;;7.90;100.00
62418;BME280;48456;54.242;10.280;2022-07-29T03:10:14;101894.09;;;7.89;100.00
62418;BME280;48456;54.242;10.280;2022-07-29T03:12:41;101894.97;;;7.90;100.00
62418;BME280;48456;54.242;10.280;2022-07-29T03:15:07;101900.22;;;7.88;100.00
62418;BME280;48456;54.242;10.280;2022-07-29T03:17:34;101886.16;;;7.88;100.00
62418;BME280;48456;54.242;10.280;2022-07-29T03:20:02;101888.81;;;7.89;100.00
62418;BME280;48456;54.242;10.280;2022-07-29T03:22:28;101888.06;;;7.93;100.00
62418;BME280;48456;54.242;10.280;2022-07-29T03:24:55;101891.63;;;7.97;100.00
62418;BME280;48456;54.242;10.280;2022-07-29T03:27:21;101886.44;;;8.00;100.00
62418;BME280;48456;54.242;10.280;2022-07-29T03:29:47;101880.34;;;8.03;100.00
62418;BME280;48456;54.242;10.280;2022-07-29T03:32:15;101884.84;;;8.07;100.00
62418;BME280;48456;54.242;10.280;2022-07-29T03:34:49;101883.19;;;8.12;100.00
62418;BME280;48456;54.242;10.280;2022-07-29T03:37:15;101884.19;;;8.16;100.00
62418;BME280;48456;54.242;10.280;2022-07-29T03:39:41;101882.50;;;8.19;100.00
62418;BME280;48456;54.242;10.280;2022-07-29T03:42:10;101879.91;;;8.21;100.00
62418;BME280;48456;54.242;10.280;2022-07-29T03:44:37;101887.91;;;8.26;100.00
62418;BME280;48456;54.242;10.280;2022-07-29T03:47:03;101880.91;;;8.26;100.00
62418;BME280;48456;54.242;10.280;2022-07-29T03:49:31;101880.16;;;8.32;100.00
62418;BME280;48456;54.242;10.280;2022-07-29T03:51:58;101885.50;;;8.35;100.00
62418;BME280;48456;54.242;10.280;2022-07-29T03:54:25;101888.25;;;8.41;100.00
62418;BME280;48456;54.242;10.280;2022-07-29T03:56:51;101877.88;;;8.49;100.00
62418;BME280;48456;54.242;10.280;2022-07-29T03:59:18;101880.81;;;8.62;100.00
62418;BME280;48456;54.242;10.280;2022-07-29T04:01:46;101880.00;;;8.66;100.00
62418;BME280;48456;54.242;10.280;2022-07-29T04:04:13;101881.81;;;8.68;100.00
62418;BME280;48456;54.242;10.280;2022-07-29T04:06:41;101878.34;;;8.69;100.00
62418;BME280;48456;54.242;10.280;2022-07-29T04:09:08;101880.19;;;8.74;100.00
62418;BME280;48456;54.242;10.280;2022-07-29T04:11:35;101888.16;;;8.77;100.00
62418;BME280;48456;54.242;10.280;2022-07-29T04:14:22;101883.81;;;8.79;100.00
62418;BME280;48456;54.242;10.280;2022-07-29T04:16:48;101883.94;;;8.87;100.00
62418;BME280;48456;54.242;10.280;2022-07-29T04:19:15;101892.81;;;8.89;100.00
62418;BME280;48456;54.242;10.280;2022-07-29T04:21:41;101885.00;;;8.95;100.00
62418;BME280;48456;54.242;10.280;2022-07-29T04:24:07;101891.25;;;9.00;100.00
62418;BME280;48456;54.242;10.280;2022-07-29T04:26:34;101884.34;;;9.05;100.00
62418;BME280;48456;54.242;10.280;2022-07-29T04:29:00;101887.09;;;9.12;100.00
62418;BME280;48456;54.242;10.280;2022-07-29T04:31:27;101884.53;;;9.16;100.00
62418;BME280;48456;54.242;10.280;2022-07-29T04:33:53;101881.09;;;9.22;100.00
62418;BME280;48456;54.242;10.280;2022-07-29T04:36:19;101882.00;;;9.22;100.00
62418;BME280;48456;54.242;10.280;2022-07-29T04:38:54;101875.03;;;9.25;100.00
62418;BME280;48456;54.242;10.280;2022-07-29T04:41:21;101882.13;;;9.29;100.00
62418;BME280;48456;54.242;10.280;2022-07-29T04:43:48;101873.38;;;9.33;100.00
62418;BME280;48456;54.242;10.280;2022-07-29T04:46:15;101876.13;;;9.38;100.00
62418;BME280;48456;54.242;10.280;2022-07-29T04:48:41;101877.06;;;9.43;100.00
62418;BME280;48456;54.242;10.280;2022-07-29T04:51:08;101878.94;;;9.48;100.00
62418;BME280;48456;54.242;10.280;2022-07-29T04:53:34;101880.84;;;9.56;100.00
62418;BME280;48456;54.242;10.280;2022-07-29T04:56:00;101882.69;;;9.61;100.00
62418;BME280;48456;54.242;10.280;2022-07-29T04:58:27;101874.00;;;9.69;100.00
62418;BME280;48456;54.242;10.280;2022-07-29T05:00:54;101882.84;;;9.71;100.00
62418;BME280;48456;54.242;10.280;2022-07-29T05:03:20;101878.53;;;9.76;100.00
62418;BME280;48456;54.242;10.280;2022-07-29T05:05:46;101882.13;;;9.81;100.00
62418;BME280;48456;54.242;10.280;2022-07-29T05:08:13;101883.97;;;9.87;100.00
62418;BME280;48456;54.242;10.280;2022-07-29T05:10:39;101885.03;;;9.97;100.00
62418;BME280;48456;54.242;10.280;2022-07-29T05:13:06;101886.94;;;10.06;100.00
62418;BME280;48456;54.242;10.280;2022-07-29T05:15:33;101884.41;;;10.15;100.00
62418;BME280;48456;54.242;10.280;2022-07-29T05:18:00;101881.00;;;10.24;100.00
62418;BME280;48456;54.242;10.280;2022-07-29T05:20:27;101872.31;;;10.31;100.00
62418;BME280;48456;54.242;10.280;2022-07-29T05:22:55;101882.13;;;10.40;100.00
62418;BME280;48456;54.242;10.280;2022-07-29T05:25:22;101880.50;;;10.47;100.00
62418;BME280;48456;54.242;10.280;2022-07-29T05:28:05;101885.09;;;10.62;100.00
62418;BME280;48456;54.242;10.280;2022-07-29T05:30:32;101877.22;;;10.68;100.00
62418;BME280;48456;54.242;10.280;2022-07-29T05:32:58;101877.34;;;10.77;100.00
62418;BME280;48456;54.242;10.280;2022-07-29T05:35:24;101877.44;;;10.85;100.00
62418;BME280;48456;54.242;10.280;2022-07-29T05:37:51;101884.56;;;10.92;100.00
62418;BME280;48456;54.242;10.280;2022-07-29T05:40:17;101885.59;;;11.05;100.00
62418;BME280;48456;54.242;10.280;2022-07-29T05:42:43;101880.44;;;11.16;100.00
62418;BME280;48456;54.242;10.280;2022-07-29T05:45:10;101885.91;;;11.32;100.00
62418;BME280;48456;54.242;10.280;2022-07-29T05:47:36;101879.88;;;11.50;100.00
62418;BME280;48456;54.242;10.280;2022-07-29T05:50:03;101875.63;;;11.69;100.00
62418;BME280;48456;54.242;10.280;2022-07-29T05:52:30;101874.03;;;11.89;100.00
62418;BME280;48456;54.242;10.280;2022-07-29T05:54:56;101877.72;;;12.08;100.00
62418;BME280;48456;54.242;10.280;2022-07-29T05:57:23;101870.78;;;12.32;100.00
62418;BME280;48456;54.242;10.280;2022-07-29T05:59:50;101871.81;;;12.57;100.00
62418;BME280;48456;54.242;10.280;2022-07-29T06:02:17;101878.97;;;12.82;100.00
62418;BME280;48456;54.242;10.280;2022-07-29T06:04:43;101879.03;;;12.96;100.00
62418;BME280;48456;54.242;10.280;2022-07-29T06:07:10;101871.13;;;13.19;100.00
62418;BME280;48456;54.242;10.280;2022-07-29T06:09:37;101879.09;;;13.27;100.00
62418;BME280;48456;54.242;10.280;2022-07-29T06:12:03;101860.50;;;13.39;100.00
62418;BME280;48456;54.242;10.280;2022-07-29T06:14:30;101867.63;;;13.51;100.00
62418;BME280;48456;54.242;10.280;2022-07-29T06:16:56;101872.06;;;13.63;100.00
62418;BME280;48456;54.242;10.280;2022-07-29T06:19:23;101870.28;;;13.94;100.00
62418;BME280;48456;54.242;10.280;2022-07-29T06:21:49;101887.09;;;14.05;100.00
62418;BME280;48456;54.242;10.280;2022-07-29T06:24:15;101879.13;;;14.13;100.00
62418;BME280;48456;54.242;10.280;2022-07-29T06:26:42;101875.56;;;14.14;100.00
62418;BME280;48456;54.242;10.280;2022-07-29T06:29:09;101876.44;;;14.22;100.00
62418;BME280;48456;54.242;10.280;2022-07-29T06:31:37;101870.19;;;14.37;100.00
62418;BME280;48456;54.242;10.280;2022-07-29T06:34:03;101875.47;;;14.51;100.00
62418;BME280;48456;54.242;10.280;2022-07-29T06:36:30;101878.94;;;14.67;100.00
62418;BME280;48456;54.242;10.280;2022-07-29T06:38:56;101880.63;;;14.93;100.00
62418;BME280;48456;54.242;10.280;2022-07-29T06:41:23;101884.13;;;15.05;100.00
62418;BME280;48456;54.242;10.280;2022-07-29T06:43:49;101877.84;;;15.17;100.00
62418;BME280;48456;54.242;10.280;2022-07-29T06:46:20;101879.50;;;15.38;100.00
62418;BME280;48456;54.242;10.280;2022-07-29T06:48:47;101870.53;;;15.44;100.00
62418;BME280;48456;54.242;10.280;2022-07-29T06:51:15;101878.44;;;15.58;100.00
62418;BME280;48456;54.242;10.280;2022-07-29T06:53:48;101870.34;;;15.69;100.00
62418;BME280;48456;54.242;10.280;2022-07-29T06:56:28;101863.03;;;15.94;100.00
62418;BME280;48456;54.242;10.280;2022-07-29T06:58:55;101869.13;;;16.06;100.00
62418;BME280;48456;54.242;10.280;2022-07-29T07:01:21;101868.72;;;16.43;100.00
62418;BME280;48456;54.242;10.280;2022-07-29T07:03:48;101867.81;;;16.46;100.00
62418;BME280;48456;54.242;10.280;2022-07-29T07:06:14;101866.72;;;16.61;100.00
62418;BME280;48456;54.242;10.280;2022-07-29T07:08:40;101863.81;;;16.81;100.00
62418;BME280;48456;54.242;10.280;2022-07-29T07:11:07;101852.75;;;17.11;100.00
62418;BME280;48456;54.242;10.280;2022-07-29T07:13:33;101858.50;;;17.41;100.00
62418;BME280;48456;54.242;10.280;2022-07-29T07:16:02;101856.41;;;17.62;100.00
62418;BME280;48456;54.242;10.280;2022-07-29T07:18:28;101859.81;;;17.72;100.00
62418;BME280;48456;54.242;10.280;2022-07-29T07:20:55;101858.75;;;17.80;100.00
62418;BME280;48456;54.242;10.280;2022-07-29T07:23:22;101845.25;;;17.88;100.00
62418;BME280;48456;54.242;10.280;2022-07-29T07:25:48;101852.75;;;18.16;100.00
62418;BME280;48456;54.242;10.280;2022-07-29T07:28:14;101849.75;;;18.34;100.00
62418;BME280;48456;54.242;10.280;2022-07-29T07:30:41;101849.53;;;18.44;100.00
62418;BME280;48456;54.242;10.280;2022-07-29T07:33:07;101853.13;;;18.45;100.00
62418;BME280;48456;54.242;10.280;2022-07-29T07:35:33;101851.16;;;18.53;100.00
62418;BME280;48456;54.242;10.280;2022-07-29T07:38:00;101846.09;;;18.39;100.00
62418;BME280;48456;54.242;10.280;2022-07-29T07:40:26;101845.91;;;18.47;100.00
62418;BME280;48456;54.242;10.280;2022-07-29T07:42:52;101844.75;;;18.59;100.00
62418;BME280;48456;54.242;10.280;2022-07-29T07:45:19;101848.56;;;18.49;100.00
62418;BME280;48456;54.242;10.280;2022-07-29T07:47:45;101841.28;;;18.55;100.00
62418;BME280;48456;54.242;10.280;2022-07-29T07:50:12;101828.84;;;18.92;100.00
62418;BME280;48456;54.242;10.280;2022-07-29T07:52:51;101831.25;;;19.06;100.00
62418;BME280;48456;54.242;10.280;2022-07-29T07:55:18;101836.34;;;19.17;100.00
62418;BME280;48456;54.242;10.280;2022-07-29T07:57:45;101835.78;;;19.41;100.00
62418;BME280;48456;54.242;10.280;2022-07-29T08:00:12;101839.81;;;19.22;100.00
62418;BME280;48456;54.242;10.280;2022-07-29T08:02:39;101838.31;;;19.11;100.00
62418;BME280;48456;54.242;10.280;2022-07-29T08:05:06;101835.13;;;19.31;100.00
62418;BME280;48456;54.242;10.280;2022-07-29T08:07:37;101829.50;;;19.42;100.00
62418;BME280;48456;54.242;10.280;2022-07-29T08:10:04;101822.06;;;19.53;100.00
62418;BME280;48456;54.242;10.280;2022-07-29T08:12:30;101824.66;;;19.58;100.00
62418;BME280;48456;54.242;10.280;2022-07-29T08:14:57;101836.25;;;19.58;100.00
62418;BME280;48456;54.242;10.280;2022-07-29T08:17:23;101833.69;;;19.54;100.00
62418;BME280;48456;54.242;10.280;2022-07-29T08:19:50;101832.69;;;19.58;100.00
62418;BME280;48456;54.242;10.280;2022-07-29T08:22:16;101833.22;;;19.71;100.00
62418;BME280;48456;54.242;10.280;2022-07-29T08:24:42;101821.13;;;19.89;100.00
62418;BME280;48456;54.242;10.280;2022-07-29T08:27:13;101823.09;;;20.17;100.00
62418;BME280;48456;54.242;10.280;2022-07-29T08:29:59;101819.50;;;20.17;100.00
62418;BME280;48456;54.242;10.280;2022-07-29T08:32:25;101820.94;;;20.29;100.00
62418;BME280;48456;54.242;10.280;2022-07-29T08:35:14;101822.66;;;20.31;100.00
62418;BME280;48456;54.242;10.280;2022-07-29T08:37:40;101830.09;;;20.53;100.00
62418;BME280;48456;54.242;10.280;2022-07-29T08:40:08;101818.59;;;20.48;100.00
62418;BME280;48456;54.242;10.280;2022-07-29T08:42:34;101825.19;;;20.37;100.00
62418;BME280;48456;54.242;10.280;2022-07-29T08:45:02;101820.47;;;20.46;100.00
62418;BME280;48456;54.242;10.280;2022-07-29T08:47:28;101822.63;;;20.63;100.00
62418;BME280;48456;54.242;10.280;2022-07-29T08:49:55;101814.56;;;20.63;100.00
62418;BME280;48456;54.242;10.280;2022-07-29T08:52:23;101813.16;;;20.80;100.00
62418;BME280;48456;54.242;10.280;2022-07-29T08:54:51;101815.47;;;20.94;100.00
62418;BME280;48456;54.242;10.280;2022-07-29T08:57:18;101814.84;;;21.12;100.00
62418;BME280;48456;54.242;10.280;2022-07-29T08:59:45;101809.31;;;21.44;100.00
62418;BME280;48456;54.242;10.280;2022-07-29T09:02:16;101810.31;;;21.68;100.00
62418;BME280;48456;54.242;10.280;2022-07-29T09:04:44;101801.75;;;21.83;100.00
62418;BME280;48456;54.242;10.280;2022-07-29T09:07:14;101812.22;;;21.92;100.00
62418;BME280;48456;54.242;10.280;2022-07-29T09:09:41;101801.47;;;21.90;100.00
62418;BME280;48456;54.242;10.280;2022-07-29T09:12:11;101811.41;;;21.88;100.00
62418;BME280;48456;54.242;10.280;2022-07-29T09:14:54;101802.09;;;21.72;100.00
62418;BME280;48456;54.242;10.280;2022-07-29T09:17:43;101813.81;;;21.71;100.00
62418;BME280;48456;54.242;10.280;2022-07-29T09:20:09;101809.41;;;21.68;100.00
62418;BME280;48456;54.242;10.280;2022-07-29T09:22:36;101812.84;;;21.73;100.00
62418;BME280;48456;54.242;10.280;2022-07-29T09:25:07;101807.69;;;21.92;100.00
62418;BME280;48456;54.242;10.280;2022-07-29T09:27:33;101815.94;;;21.88;100.00
62418;BME280;48456;54.242;10.280;2022-07-29T09:30:04;101811.06;;;21.98;100.00
62418;BME280;48456;54.242;10.280;2022-07-29T09:32:32;101811.16;;;21.96;100.00
62418;BME280;48456;54.242;10.280;2022-07-29T09:35:14;101810.28;;;22.19;100.00
62418;BME280;48456;54.242;10.280;2022-07-29T09:37:41;101814.69;;;22.22;92.51
62418;BME280;48456;54.242;10.280;2022-07-29T09:40:11;101811.59;;;22.57;100.00
62418;BME280;48456;54.242;10.280;2022-07-29T09:42:38;101801.75;;;22.80;100.00
62418;BME280;48456;54.242;10.280;2022-07-29T09:45:04;101806.50;;;22.95;95.50
62418;BME280;48456;54.242;10.280;2022-07-29T09:47:44;101798.72;;;22.88;100.00
62418;BME280;48456;54.242;10.280;2022-07-29T09:50:11;101797.19;;;22.80;88.83
62418;BME280;48456;54.242;10.280;2022-07-29T09:52:48;101811.59;;;22.57;87.90
62418;BME280;48456;54.242;10.280;2022-07-29T09:55:15;101796.91;;;22.40;82.15
62418;BME280;48456;54.242;10.280;2022-07-29T09:57:44;101805.53;;;22.50;87.33
62418;BME280;48456;54.242;10.280;2022-07-29T10:00:11;101802.41;;;22.63;94.07
62418;BME280;48456;54.242;10.280;2022-07-29T10:02:39;101794.72;;;22.76;94.83
62418;BME280;48456;54.242;10.280;2022-07-29T10:05:06;101797.34;;;22.77;91.18
62418;BME280;48456;54.242;10.280;2022-07-29T10:07:45;101796.13;;;22.84;95.69
62418;BME280;48456;54.242;10.280;2022-07-29T10:10:26;101795.75;;;22.94;94.85
62418;BME280;48456;54.242;10.280;2022-07-29T10:12:56;101794.44;;;22.82;87.01
62418;BME280;48456;54.242;10.280;2022-07-29T10:15:26;101791.00;;;23.01;95.82
62418;BME280;48456;54.242;10.280;2022-07-29T10:17:53;101799.09;;;22.54;78.45
62418;BME280;48456;54.242;10.280;2022-07-29T10:20:20;101805.44;;;22.53;84.13
62418;BME280;48456;54.242;10.280;2022-07-29T10:22:47;101796.81;;;22.90;86.69
62418;BME280;48456;54.242;10.280;2022-07-29T10:25:19;101801.03;;;23.19;84.02
62418;BME280;48456;54.242;10.280;2022-07-29T10:27:46;101790.78;;;23.28;87.30
62418;BME280;48456;54.242;10.280;2022-07-29T10:30:14;101785.34;;;23.07;77.24
62418;BME280;48456;54.242;10.280;2022-07-29T10:32:49;101786.06;;;23.55;91.81
62418;BME280;48456;54.242;10.280;2022-07-29T10:40:38;101784.44;;;24.33;82.42
62418;BME280;48456;54.242;10.280;2022-07-29T10:43:27;101784.19;;;24.37;77.94
62418;BME280;48456;54.242;10.280;2022-07-29T10:45:57;101787.63;;;24.22;76.59
62418;BME280;48456;54.242;10.280;2022-07-29T10:48:24;101788.00;;;24.52;79.26
62418;BME280;48456;54.242;10.280;2022-07-29T10:53:21;101767.53;;;24.47;72.51
62418;BME280;48456;54.242;10.280;2022-07-29T10:55:51;101777.69;;;24.22;78.82
62418;BME280;48456;54.242;10.280;2022-07-29T11:00:47;101785.50;;;25.41;71.46
62418;BME280;48456;54.242;10.280;2022-07-29T11:06:16;101767.91;;;27.00;52.23
62418;BME280;48456;54.242;10.280;2022-07-29T11:09:14;101771.00;;;27.24;60.88
62418;BME280;48456;54.242;10.280;2022-07-29T11:11:41;101777.53;;;26.73;56.97
62418;BME280;48456;54.242;10.280;2022-07-29T11:14:16;101764.66;;;26.93;56.82
62418;BME280;48456;54.242;10.280;2022-07-29T11:17:00;101774.78;;;27.21;61.19
62418;BME280;48456;54.242;10.280;2022-07-29T11:19:50;101760.06;;;27.71;53.95
62418;BME280;48456;54.242;10.280;2022-07-29T11:22:50;101755.50;;;28.72;52.08
62418;BME280;48456;54.242;10.280;2022-07-29T11:25:15;101759.75;;;28.34;46.94
62418;BME280;48456;54.242;10.280;2022-07-29T11:27:42;101765.50;;;27.09;47.83
62418;BME280;48456;54.242;10.280;2022-07-29T11:30:11;101762.84;;;26.45;48.38
62418;BME280;48456;54.242;10.280;2022-07-29T11:32:40;101755.47;;;26.63;51.12
62418;BME280;48456;54.242;10.280;2022-07-29T11:37:44;101749.84;;;26.82;52.27
62418;BME280;48456;54.242;10.280;2022-07-29T11:40:17;101756.00;;;26.70;50.71
62418;BME280;48456;54.242;10.280;2022-07-29T11:42:46;101753.75;;;26.62;51.79
62418;BME280;48456;54.242;10.280;2022-07-29T11:45:20;101757.00;;;27.16;55.24
62418;BME280;48456;54.242;10.280;2022-07-29T11:48:07;101750.84;;;27.88;47.89
62418;BME280;48456;54.242;10.280;2022-07-29T11:50:55;101754.19;;;27.48;47.24
62418;BME280;48456;54.242;10.280;2022-07-29T11:53:23;101754.69;;;28.42;49.94
62418;BME280;48456;54.242;10.280;2022-07-29T11:55:50;101748.31;;;28.28;42.01
62418;BME280;48456;54.242;10.280;2022-07-29T11:58:23;101746.41;;;27.56;42.95
62418;BME280;48456;54.242;10.280;2022-07-29T12:00:51;101747.53;;;26.76;44.92
62418;BME280;48456;54.242;10.280;2022-07-29T12:03:23;101755.94;;;26.39;48.74
62418;BME280;48456;54.242;10.280;2022-07-29T12:06:00;101749.81;;;26.02;52.11
62418;BME280;48456;54.242;10.280;2022-07-29T12:08:27;101751.75;;;25.66;52.58
62418;BME280;48456;54.242;10.280;2022-07-29T12:10:53;101753.00;;;25.59;58.89
62418;BME280;48456;54.242;10.280;2022-07-29T12:13:20;101753.63;;;25.28;60.07
62418;BME280;48456;54.242;10.280;2022-07-29T12:15:54;101751.84;;;24.73;59.26
62418;BME280;48456;54.242;10.280;2022-07-29T12:18:20;101749.28;;;24.52;60.54
62418;BME280;48456;54.242;10.280;2022-07-29T12:20:56;101752.19;;;24.47;66.47
62418;BME280;48456;54.242;10.280;2022-07-29T12:23:22;101758.25;;;24.33;64.28
62418;BME280;48456;54.242;10.280;2022-07-29T12:25:54;101748.97;;;24.20;62.63
62418;BME280;48456;54.242;10.280;2022-07-29T12:28:21;101757.28;;;24.15;65.21
62418;BME280;48456;54.242;10.280;2022-07-29T12:30:52;101752.13;;;24.10;64.14
62418;BME280;48456;54.242;10.280;2022-07-29T12:35:46;101748.88;;;24.02;72.27
62418;BME280;48456;54.242;10.280;2022-07-29T12:38:32;101751.53;;;23.83;69.41
62418;BME280;48456;54.242;10.280;2022-07-29T12:41:00;101751.09;;;23.92;74.22
62418;BME280;48456;54.242;10.280;2022-07-29T12:43:29;101753.03;;;23.90;73.20
62418;BME280;48456;54.242;10.280;2022-07-29T12:45:56;101750.91;;;23.97;74.66
62418;BME280;48456;54.242;10.280;2022-07-29T12:51:32;101753.25;;;23.65;69.90
62418;BME280;48456;54.242;10.280;2022-07-29T12:54:03;101759.38;;;23.68;75.10
62418;BME280;48456;54.242;10.280;2022-07-29T12:56:30;101748.97;;;23.59;74.66
62418;BME280;48456;54.242;10.280;2022-07-29T12:59:12;101755.19;;;23.40;72.41
62418;BME280;48456;54.242;10.280;2022-07-29T13:01:39;101751.44;;;23.65;80.19
62418;BME280;48456;54.242;10.280;2022-07-29T13:04:06;101744.94;;;23.48;73.06
62418;BME280;48456;54.242;10.280;2022-07-29T13:09:00;101758.91;;;23.15;78.64
62418;BME280;48456;54.242;10.280;2022-07-29T13:11:30;101755.16;;;23.19;76.39
62418;BME280;48456;54.242;10.280;2022-07-29T13:13:59;101757.88;;;22.97;77.81
62418;BME280;48456;54.242;10.280;2022-07-29T13:16:32;101751.41;;;23.01;82.52
62418;BME280;48456;54.242;10.280;2022-07-29T13:19:05;101749.84;;;22.95;83.42
62418;BME280;48456;54.242;10.280;2022-07-29T13:21:32;101765.97;;;22.97;86.40
62418;BME280;48456;54.242;10.280;2022-07-29T13:23:59;101760.22;;;22.84;81.29